Main page
METAR-TAF:

Airports :

Baia Mare, Romania

Baia Mare Airport

latitude: 47-40N, longitude: 023-35E, elevation: 218 m

Current weather observation

The report was made 18 minutes ago, at 19:30 UTC
Wind 3 kt from the Northeast, varying between North/Northeast and East
Temperature 20°C
Humidity 73%
Pressure 1015 hPa
Visibility 10 km or more

METAR: LRBM 291930Z AUTO 05003KT 020V090 9999 FEW007/// SCT200/// 20/15 Q1015

Time: 22:48 (19:48 UTC)

Forecast

The report was made 5 hours and 48 minutes ago, at 14:00 UTC
Forecast valid from 29 at 15 UTC to 29 at 24 UTC
Wind 4 kt from variable directions
Visibility 10 km or more
no clouds below 1500 m and no cumulonimbus

TAF: LRBM 291400Z 2915/2924 VRB04KT CAVOK

METAR-TAF

Weather observations and forecasts of more than 4000 airports (METAR and TAF reports).

The available stations are represented by yellow and red dots on the map.

Hover mouse over dot to see the name of the station.

Then click to see weather observations and forecasts.

To change the map : click on the green buttons with a black cross to zoom in, on the green button with a dash to zoom out, or on the green arrows for adjacent maps.


METAR-TAF: